Time;durP1;ratioP1;P1;durP2;ratioP2;P2;SDS_P1;SDS_P2;PMS_P1;PMS_P2;Temp;Humidity;BMP_temperature;BMP_pressure;BME280_temperature;BME280_humidity;BME280_pressure;Samples;Min_cycle;Max_cycle;Signal;HPM_P1;HPM_P2
2022/06/11 00:01:43;;;;;;;7.55;3.30;;;;;;;;;;4996568;28;20058;-68
2022/06/11 00:04:17;;;;;;;7.00;2.92;;;;;;;;;;4996676;28;20035;-68
2022/06/11 00:06:48;;;;;;;6.13;3.30;;;;;;;;;;4996359;28;20361;-67
2022/06/11 00:09:15;;;;;;;8.05;3.38;;;;;;;;;;4996563;28;20031;-65
2022/06/11 00:11:43;;;;;;;8.52;3.15;;;;;;;;;;4996533;28;20031;-68
2022/06/11 00:14:10;;;;;;;6.90;2.85;;;;;;;;;;4996437;28;20023;-68
2022/06/11 00:16:36;;;;;;;5.53;3.05;;;;;;;;;;4995824;28;20057;-67
2022/06/11 00:19:03;;;;;;;6.50;2.88;;;;;;;;;;4996314;28;20392;-67
2022/06/11 00:21:31;;;;;;;6.03;3.30;;;;;;;;;;4996025;28;20026;-67
2022/06/11 00:23:57;;;;;;;6.15;2.97;;;;;;;;;;4996055;28;20140;-67
2022/06/11 00:26:23;;;;;;;6.07;2.67;;;;;;;;;;4996186;28;20539;-67
2022/06/11 00:28:49;;;;;;;8.30;3.30;;;;;;;;;;4996061;28;20026;-67
2022/06/11 00:31:15;;;;;;;8.13;2.88;;;;;;;;;;4995920;28;20415;-68
2022/06/11 00:33:41;;;;;;;9.57;3.00;;;;;;;;;;4996143;28;20026;-68
2022/06/11 00:36:08;;;;;;;5.60;2.50;;;;;;;;;;4995585;28;20041;-68
2022/06/11 00:38:35;;;;;;;6.53;2.70;;;;;;;;;;4994634;28;20153;-67
2022/06/11 00:41:00;;;;;;;7.93;2.85;;;;;;;;;;4995727;28;20050;-68
2022/06/11 00:43:28;;;;;;;4.80;2.50;;;;;;;;;;4995879;28;20408;-66
2022/06/11 00:46:31;;;;;;;4.97;2.78;;;;;;;;;;4995727;28;20030;-68
2022/06/11 00:48:56;;;;;;;5.28;2.85;;;;;;;;;;4994367;28;20037;-67
2022/06/11 00:51:23;;;;;;;6.93;2.58;;;;;;;;;;4995385;28;20026;-68
2022/06/11 00:53:57;;;;;;;4.63;2.45;;;;;;;;;;4995612;28;20034;-67
2022/06/11 00:56:37;;;;;;;6.82;2.70;;;;;;;;;;4992159;28;20031;-68
2022/06/11 00:59:06;;;;;;;4.68;2.50;;;;;;;;;;4973154;28;20471;-67
2022/06/11 01:01:33;;;;;;;7.38;2.63;;;;;;;;;;4975960;28;20063;-67
2022/06/11 01:04:01;;;;;;;8.10;2.97;;;;;;;;;;4976033;28;20520;-68
2022/06/11 01:06:51;;;;;;;5.70;2.88;;;;;;;;;;4973533;28;20141;-67
2022/06/11 01:09:37;;;;;;;6.18;2.80;;;;;;;;;;4974678;28;20035;-67
2022/06/11 01:12:20;;;;;;;6.72;2.78;;;;;;;;;;4975803;28;20054;-66
2022/06/11 01:15:09;;;;;;;9.52;2.70;;;;;;;;;;4975726;28;20037;-67
2022/06/11 01:18:01;;;;;;;7.20;2.70;;;;;;;;;;4968666;28;20055;-68
2022/06/11 01:20:47;;;;;;;10.32;2.60;;;;;;;;;;4963747;28;20015;-67
2022/06/11 01:23:33;;;;;;;6.47;2.70;;;;;;;;;;4968081;28;20019;-67
2022/06/11 01:26:30;;;;;;;6.38;2.80;;;;;;;;;;4973321;28;20053;-68
2022/06/11 01:29:33;;;;;;;6.63;2.90;;;;;;;;;;4973135;28;20039;-67
2022/06/11 01:32:06;;;;;;;6.63;2.63;;;;;;;;;;4963121;28;20046;-67
2022/06/11 01:34:48;;;;;;;4.20;2.35;;;;;;;;;;4962626;28;20540;-68
2022/06/11 01:37:23;;;;;;;7.07;2.88;;;;;;;;;;4962666;28;20054;-67
2022/06/11 01:40:07;;;;;;;8.55;2.60;;;;;;;;;;4962318;28;20023;-68
2022/06/11 01:42:59;;;;;;;7.32;2.97;;;;;;;;;;4963649;28;20106;-68
2022/06/11 01:45:30;;;;;;;5.38;2.55;;;;;;;;;;4961489;28;20035;-67
2022/06/11 01:47:56;;;;;;;;;;;;;;;;;;4961157;28;20019;-67
2022/06/11 01:50:26;;;;;;;6.70;2.78;;;;;;;;;;4962631;28;20463;-67
2022/06/11 01:53:21;;;;;;;5.63;2.60;;;;;;;;;;4962444;28;20039;-68
2022/06/11 01:56:33;;;;;;;6.95;2.88;;;;;;;;;;4962686;28;20031;-67
2022/06/11 01:59:27;;;;;;;8.27;2.83;;;;;;;;;;4894422;29;20066;-67
2022/06/11 02:02:04;;;;;;;5.75;2.60;;;;;;;;;;4894950;29;20371;-68
2022/06/11 02:04:51;;;;;;;9.52;3.20;;;;;;;;;;4911455;29;20048;-67
2022/06/11 02:07:20;;;;;;;6.00;2.97;;;;;;;;;;4912480;29;20059;-68
2022/06/11 02:10:07;;;;;;;9.93;3.30;;;;;;;;;;4913234;29;20528;-67
2022/06/11 02:12:44;;;;;;;6.28;3.03;;;;;;;;;;4911844;29;20035;-68
2022/06/11 02:15:12;;;;;;;7.80;2.92;;;;;;;;;;4895673;29;20052;-68
2022/06/11 02:17:42;;;;;;;11.32;3.70;;;;;;;;;;4914870;29;20088;-67
2022/06/11 02:20:13;;;;;;;6.47;2.80;;;;;;;;;;4911107;29;20454;-68
2022/06/11 02:22:45;;;;;;;5.95;2.90;;;;;;;;;;4913499;29;20059;-67
2022/06/11 02:25:16;;;;;;;7.88;3.10;;;;;;;;;;4911640;29;20067;-67
2022/06/11 02:27:44;;;;;;;6.82;2.72;;;;;;;;;;4913576;29;20490;-67
2022/06/11 02:30:15;;;;;;;5.93;2.72;;;;;;;;;;4913837;29;20046;-67
2022/06/11 02:32:41;;;;;;;7.07;3.17;;;;;;;;;;4913656;29;20028;-68
2022/06/11 02:35:10;;;;;;;6.90;2.88;;;;;;;;;;4927171;28;20054;-67
2022/06/11 02:37:40;;;;;;;8.70;3.50;;;;;;;;;;4973277;28;20081;-67
2022/06/11 02:40:26;;;;;;;8.57;3.10;;;;;;;;;;4973393;28;20037;-68
2022/06/11 02:42:52;;;;;;;7.15;3.25;;;;;;;;;;4973383;28;20035;-67
2022/06/11 02:45:18;;;;;;;6.90;3.05;;;;;;;;;;4965845;28;20035;-66
2022/06/11 02:47:46;;;;;;;6.82;3.17;;;;;;;;;;4962384;28;20023;-67
2022/06/11 02:50:35;;;;;;;10.02;3.20;;;;;;;;;;4971455;28;20042;-67
2022/06/11 02:53:02;;;;;;;6.00;3.05;;;;;;;;;;4973930;28;20098;-67
2022/06/11 02:55:30;;;;;;;8.32;3.28;;;;;;;;;;4973700;28;20037;-68
2022/06/11 02:57:56;;;;;;;7.47;3.08;;;;;;;;;;4973560;28;20475;-66
2022/06/11 03:00:28;;;;;;;8.57;3.17;;;;;;;;;;4973620;28;20432;-67
2022/06/11 03:02:53;;;;;;;10.45;5.55;;;;;;;;;;4973719;28;20033;-67
2022/06/11 03:05:23;;;;;;;10.93;3.83;;;;;;;;;;4973609;28;20031;-67
2022/06/11 03:07:49;;;;;;;8.55;3.90;;;;;;;;;;4973805;28;20023;-67
2022/06/11 03:10:18;;;;;;;7.80;3.30;;;;;;;;;;4972426;28;20038;-67
2022/06/11 03:12:43;;;;;;;8.75;3.20;;;;;;;;;;4977774;28;20057;-67
2022/06/11 03:15:11;;;;;;;7.68;3.13;;;;;;;;;;4992855;28;20068;-68
2022/06/11 03:17:37;;;;;;;9.00;3.28;;;;;;;;;;4992517;28;20061;-66
2022/06/11 03:20:05;;;;;;;7.07;3.15;;;;;;;;;;4992740;28;20027;-66
2022/06/11 03:22:30;;;;;;;7.05;3.17;;;;;;;;;;4992526;28;20041;-66
2022/06/11 03:24:56;;;;;;;8.75;3.28;;;;;;;;;;4991257;28;20092;-67
2022/06/11 03:27:22;;;;;;;5.32;2.75;;;;;;;;;;4992747;28;20480;-68
2022/06/11 03:29:47;;;;;;;11.57;3.25;;;;;;;;;;4995141;28;20018;-67
2022/06/11 03:32:13;;;;;;;7.80;2.92;;;;;;;;;;4996671;28;20472;-67
2022/06/11 03:34:38;;;;;;;9.93;3.17;;;;;;;;;;4996764;28;20023;-67
2022/06/11 03:37:05;;;;;;;6.55;2.95;;;;;;;;;;4996317;28;20475;-68
2022/06/11 03:39:31;;;;;;;4.63;2.97;;;;;;;;;;4996613;28;20030;-67
2022/06/11 03:41:56;;;;;;;5.95;3.20;;;;;;;;;;4996504;28;20360;-67
2022/06/11 03:44:22;;;;;;;8.10;3.22;;;;;;;;;;4996357;28;20110;-67
2022/06/11 03:46:48;;;;;;;6.03;2.95;;;;;;;;;;4996427;28;20053;-68
2022/06/11 03:49:15;;;;;;;7.93;3.03;;;;;;;;;;4996391;28;20027;-66
2022/06/11 03:51:41;;;;;;;8.63;3.20;;;;;;;;;;4996311;28;20078;-68
2022/06/11 03:54:07;;;;;;;5.75;2.90;;;;;;;;;;4996437;28;20084;-68
2022/06/11 03:56:34;;;;;;;7.50;3.10;;;;;;;;;;4996006;28;20031;-68
2022/06/11 03:59:00;;;;;;;4.70;2.97;;;;;;;;;;4995390;28;20030;-67
2022/06/11 04:01:26;;;;;;;7.90;3.00;;;;;;;;;;4995650;28;20033;-67
2022/06/11 04:04:01;;;;;;;6.97;3.05;;;;;;;;;;4995659;28;20026;-67
2022/06/11 04:06:31;;;;;;;9.65;3.35;;;;;;;;;;4995845;28;20387;-68
2022/06/11 04:08:57;;;;;;;4.47;2.92;;;;;;;;;;4996207;28;20030;-68
2022/06/11 04:11:24;;;;;;;6.55;3.00;;;;;;;;;;4995913;28;20049;-68
2022/06/11 04:13:51;;;;;;;7.22;3.10;;;;;;;;;;4995239;28;20033;-68
2022/06/11 04:16:35;;;;;;;5.03;3.30;;;;;;;;;;4995208;28;20046;-67
2022/06/11 04:19:06;;;;;;;8.50;3.83;;;;;;;;;;4956621;28;20051;-67
2022/06/11 04:21:32;;;;;;;;;;;;;;;;;;4957172;28;20019;-68
2022/06/11 04:23:59;;;;;;;5.47;3.00;;;;;;;;;;4957014;28;19915;-66
2022/06/11 04:26:29;;;;;;;6.32;3.20;;;;;;;;;;4957135;28;20027;-66
2022/06/11 04:28:56;;;;;;;7.50;3.05;;;;;;;;;;4956356;28;20027;-66
2022/06/11 04:31:23;;;;;;;7.50;2.90;;;;;;;;;;4956039;28;20046;-68
2022/06/11 04:33:49;;;;;;;5.22;3.30;;;;;;;;;;4956366;28;20027;-68
2022/06/11 04:36:16;;;;;;;6.18;3.13;;;;;;;;;;4956230;28;20492;-67
2022/06/11 04:38:43;;;;;;;5.45;2.90;;;;;;;;;;4956629;28;20035;-67
2022/06/11 04:41:08;;;;;;;7.95;3.05;;;;;;;;;;4954063;28;20055;-67
2022/06/11 04:43:34;;;;;;;8.10;3.40;;;;;;;;;;4956548;28;20057;-67
2022/06/11 04:46:00;;;;;;;10.00;3.10;;;;;;;;;;4956754;28;20062;-67
2022/06/11 04:48:26;;;;;;;8.60;3.45;;;;;;;;;;4956664;28;20440;-67
2022/06/11 04:50:52;;;;;;;8.65;3.45;;;;;;;;;;4956605;28;20053;-69
2022/06/11 04:53:18;;;;;;;5.50;2.97;;;;;;;;;;4956517;28;20035;-67
2022/06/11 04:55:43;;;;;;;5.50;2.60;;;;;;;;;;4956331;28;20030;-68
2022/06/11 04:58:09;;;;;;;10.32;3.00;;;;;;;;;;4956016;28;20481;-68
2022/06/11 05:00:35;;;;;;;5.75;3.00;;;;;;;;;;4955839;28;20476;-67
2022/06/11 05:03:01;;;;;;;8.60;2.78;;;;;;;;;;4955947;28;20031;-68
2022/06/11 05:05:27;;;;;;;6.90;3.20;;;;;;;;;;4955667;28;20381;-67
2022/06/11 05:07:52;;;;;;;7.07;2.53;;;;;;;;;;4955958;28;20031;-67
2022/06/11 05:10:26;;;;;;;5.78;2.80;;;;;;;;;;4956305;29;20026;-67
2022/06/11 05:12:52;;;;;;;6.82;2.95;;;;;;;;;;4955845;28;20034;-66
2022/06/11 05:15:17;;;;;;;9.52;2.80;;;;;;;;;;4956093;28;20023;-67
2022/06/11 05:17:43;;;;;;;6.22;2.83;;;;;;;;;;4976004;28;20058;-67
2022/06/11 05:20:10;;;;;;;4.72;2.47;;;;;;;;;;4993633;28;20116;-67
2022/06/11 05:22:37;;;;;;;8.65;2.60;;;;;;;;;;4994630;28;20034;-67
2022/06/11 05:25:03;;;;;;;4.82;2.72;;;;;;;;;;4993649;28;20030;-66
2022/06/11 05:27:29;;;;;;;8.20;2.70;;;;;;;;;;4994180;28;20113;-67
2022/06/11 05:29:59;;;;;;;4.72;2.53;;;;;;;;;;4993880;28;20117;-68
2022/06/11 05:32:32;;;;;;;6.10;2.60;;;;;;;;;;4993956;28;20026;-67
2022/06/11 05:35:00;;;;;;;6.47;2.42;;;;;;;;;;4993971;28;20040;-67
2022/06/11 05:37:27;;;;;;;5.50;2.83;;;;;;;;;;4994061;28;20121;-66
2022/06/11 05:39:53;;;;;;;5.28;2.60;;;;;;;;;;4994217;28;20030;-66
2022/06/11 05:42:22;;;;;;;5.43;2.47;;;;;;;;;;4994357;28;20429;-68
2022/06/11 05:44:48;;;;;;;6.18;2.60;;;;;;;;;;4994355;28;20459;-68
2022/06/11 05:47:16;;;;;;;6.88;2.67;;;;;;;;;;4994305;28;20061;-67
2022/06/11 05:49:45;;;;;;;9.93;2.55;;;;;;;;;;4994232;28;20353;-67
2022/06/11 05:52:21;;;;;;;7.18;2.55;;;;;;;;;;4993650;28;20027;-65
2022/06/11 05:54:48;;;;;;;6.25;2.75;;;;;;;;;;4993944;28;20076;-64
2022/06/11 05:57:20;;;;;;;5.07;2.30;;;;;;;;;;4993653;28;20031;-65
2022/06/11 05:59:50;;;;;;;6.03;2.80;;;;;;;;;;4993573;28;20422;-66
2022/06/11 06:02:19;;;;;;;5.07;2.47;;;;;;;;;;4993368;28;20086;-67
2022/06/11 06:04:45;;;;;;;4.00;2.23;;;;;;;;;;4993330;28;20077;-65
2022/06/11 06:07:10;;;;;;;5.32;2.60;;;;;;;;;;4993514;28;20499;-66
2022/06/11 06:09:36;;;;;;;8.90;2.38;;;;;;;;;;4993691;28;20038;-66
2022/06/11 06:12:03;;;;;;;9.50;2.50;;;;;;;;;;4993720;28;20101;-66
2022/06/11 06:14:29;;;;;;;4.72;2.63;;;;;;;;;;4993380;28;20085;-67
2022/06/11 06:16:54;;;;;;;4.00;2.30;;;;;;;;;;4992719;28;20552;-66
2022/06/11 06:19:20;;;;;;;4.65;2.25;;;;;;;;;;4993095;28;20037;-67
2022/06/11 06:21:46;;;;;;;8.32;2.47;;;;;;;;;;4992983;28;20027;-67
2022/06/11 06:24:11;;;;;;;8.65;2.10;;;;;;;;;;4993258;28;20041;-67
2022/06/11 06:26:38;;;;;;;5.90;2.30;;;;;;;;;;4993272;28;20026;-67
2022/06/11 06:29:04;;;;;;;5.22;2.70;;;;;;;;;;4993429;28;20026;-68
2022/06/11 06:31:30;;;;;;;6.72;2.20;;;;;;;;;;4993300;28;20033;-66
2022/06/11 06:34:01;;;;;;;5.75;2.60;;;;;;;;;;4993477;28;20031;-66
2022/06/11 06:36:28;;;;;;;5.63;2.33;;;;;;;;;;4993479;28;20030;-66
2022/06/11 06:38:55;;;;;;;9.25;2.40;;;;;;;;;;4993238;28;20487;-67
2022/06/11 06:41:21;;;;;;;6.47;2.45;;;;;;;;;;4993276;28;20124;-67
2022/06/11 06:43:48;;;;;;;5.45;2.60;;;;;;;;;;4993043;28;20030;-67
2022/06/11 06:46:16;;;;;;;5.68;2.78;;;;;;;;;;4992612;28;20105;-67
2022/06/11 06:48:43;;;;;;;5.68;2.50;;;;;;;;;;4992702;28;20031;-67
2022/06/11 06:51:09;;;;;;;6.47;2.30;;;;;;;;;;4992587;28;20026;-68
2022/06/11 06:53:40;;;;;;;5.38;2.60;;;;;;;;;;4992567;28;20104;-67
2022/06/11 06:56:06;;;;;;;6.00;2.40;;;;;;;;;;4993120;28;20026;-66
2022/06/11 06:58:33;;;;;;;4.45;2.33;;;;;;;;;;4993197;28;20392;-67
2022/06/11 07:00:59;;;;;;;8.95;2.53;;;;;;;;;;4993136;28;20031;-66
2022/06/11 07:03:24;;;;;;;5.68;2.70;;;;;;;;;;4992226;28;20027;-67
2022/06/11 07:05:50;;;;;;;5.20;2.35;;;;;;;;;;4993115;28;20081;-68
2022/06/11 07:08:17;;;;;;;7.53;2.13;;;;;;;;;;4992942;28;20034;-67
2022/06/11 07:10:51;;;;;;;6.07;2.03;;;;;;;;;;4992976;28;20098;-67
2022/06/11 07:13:18;;;;;;;6.63;2.15;;;;;;;;;;4992582;28;20387;-67
2022/06/11 07:15:47;;;;;;;6.85;2.20;;;;;;;;;;4992011;28;20510;-67
2022/06/11 07:18:33;;;;;;;4.25;2.03;;;;;;;;;;4992052;28;20506;-65
2022/06/11 07:21:02;;;;;;;4.25;1.77;;;;;;;;;;4991955;28;20404;-65
2022/06/11 07:23:36;;;;;;;5.28;2.38;;;;;;;;;;4992545;28;20022;-65
2022/06/11 07:26:07;;;;;;;5.00;2.15;;;;;;;;;;4992916;28;20058;-65
2022/06/11 07:28:48;;;;;;;7.30;1.90;;;;;;;;;;4992884;28;20459;-67
2022/06/11 07:31:14;;;;;;;4.22;2.38;;;;;;;;;;4993095;28;20042;-66
2022/06/11 07:33:41;;;;;;;5.78;2.10;;;;;;;;;;4992898;28;20058;-66
2022/06/11 07:36:07;;;;;;;8.75;2.10;;;;;;;;;;4992525;28;20054;-66
2022/06/11 07:38:33;;;;;;;5.75;1.90;;;;;;;;;;4992768;28;20440;-66
2022/06/11 07:40:58;;;;;;;6.13;2.00;;;;;;;;;;4992785;28;20030;-67
2022/06/11 07:43:25;;;;;;;5.05;1.52;;;;;;;;;;4992415;28;20030;-67
2022/06/11 07:45:50;;;;;;;5.95;1.85;;;;;;;;;;4992014;28;20369;-66
2022/06/11 07:48:16;;;;;;;3.70;1.65;;;;;;;;;;4992058;28;20032;-67
2022/06/11 07:50:45;;;;;;;8.90;1.70;;;;;;;;;;4991718;28;20089;-67
2022/06/11 07:53:11;;;;;;;4.47;1.83;;;;;;;;;;4992408;28;20088;-68
2022/06/11 07:55:39;;;;;;;6.28;1.80;;;;;;;;;;4992572;28;20030;-67
2022/06/11 07:58:06;;;;;;;5.32;2.00;;;;;;;;;;4992540;28;20030;-67
2022/06/11 08:00:35;;;;;;;6.28;1.73;;;;;;;;;;4992492;28;20527;-67
2022/06/11 08:03:01;;;;;;;5.88;2.00;;;;;;;;;;4992466;28;20033;-67
2022/06/11 08:05:27;;;;;;;5.18;1.70;;;;;;;;;;4992218;28;20031;-66
2022/06/11 08:07:53;;;;;;;6.72;1.88;;;;;;;;;;4992436;28;20082;-67
2022/06/11 08:10:20;;;;;;;4.72;1.80;;;;;;;;;;4992375;28;20113;-67
2022/06/11 08:12:46;;;;;;;7.07;2.08;;;;;;;;;;4992029;28;20427;-67
2022/06/11 08:15:12;;;;;;;6.65;2.15;;;;;;;;;;4991410;28;20030;-67
2022/06/11 08:17:38;;;;;;;5.03;1.70;;;;;;;;;;4968862;28;20089;-66
2022/06/11 08:20:05;;;;;;;4.38;1.80;;;;;;;;;;4966217;28;20082;-67
2022/06/11 08:22:32;;;;;;;3.75;1.52;;;;;;;;;;4973540;28;20042;-65
2022/06/11 08:24:57;;;;;;;6.10;1.60;;;;;;;;;;4975359;28;20082;-66
2022/06/11 08:27:24;;;;;;;6.15;1.90;;;;;;;;;;4976524;28;20030;-67
2022/06/11 08:29:49;;;;;;;6.50;2.17;;;;;;;;;;4969629;28;20141;-67
2022/06/11 08:32:15;;;;;;;4.80;2.00;;;;;;;;;;4967764;28;20119;-67
2022/06/11 08:34:44;;;;;;;5.43;1.90;;;;;;;;;;4966211;28;20480;-67
2022/06/11 08:37:10;;;;;;;6.07;2.23;;;;;;;;;;4965050;28;20070;-67
2022/06/11 08:39:36;;;;;;;5.05;2.08;;;;;;;;;;4965302;28;20077;-66
2022/06/11 08:42:04;;;;;;;5.18;1.98;;;;;;;;;;4967067;28;20023;-66
2022/06/11 08:44:33;;;;;;;4.97;1.63;;;;;;;;;;4964954;28;20031;-68
2022/06/11 08:47:04;;;;;;;10.15;2.13;;;;;;;;;;4965992;28;20490;-65
2022/06/11 08:49:43;;;;;;;4.78;1.95;;;;;;;;;;4965255;28;20524;-67
2022/06/11 08:52:22;;;;;;;3.42;1.58;;;;;;;;;;4965739;28;20027;-67
2022/06/11 08:54:48;;;;;;;4.13;1.65;;;;;;;;;;4965170;28;20023;-67
2022/06/11 08:57:25;;;;;;;4.25;1.50;;;;;;;;;;4964019;28;20027;-67
2022/06/11 09:00:09;;;;;;;5.10;1.90;;;;;;;;;;4965565;28;20448;-67
2022/06/11 09:03:02;;;;;;;3.45;1.70;;;;;;;;;;4965909;28;20055;-66
2022/06/11 09:05:46;;;;;;;3.80;1.63;;;;;;;;;;4963726;28;20095;-68
2022/06/11 09:08:23;;;;;;;3.72;1.60;;;;;;;;;;4965232;28;20476;-68
2022/06/11 09:10:52;;;;;;;5.72;1.60;;;;;;;;;;4964948;28;20381;-68
2022/06/11 09:13:35;;;;;;;8.00;1.75;;;;;;;;;;4963728;28;20027;-67
2022/06/11 09:16:10;;;;;;;5.00;2.00;;;;;;;;;;4963574;28;20050;-67
2022/06/11 09:19:19;;;;;;;6.70;1.85;;;;;;;;;;4964423;28;20065;-67
2022/06/11 09:22:01;;;;;;;3.67;1.42;;;;;;;;;;4963938;28;20036;-66
2022/06/11 09:25:11;;;;;;;4.82;1.70;;;;;;;;;;4964089;28;20118;-67
2022/06/11 09:27:46;;;;;;;4.28;1.60;;;;;;;;;;4943239;28;20051;-67
2022/06/11 09:30:19;;;;;;;7.97;1.50;;;;;;;;;;4943466;29;20168;-66
2022/06/11 09:33:00;;;;;;;6.88;1.42;;;;;;;;;;4942389;29;20043;-67
2022/06/11 09:35:53;;;;;;;4.53;1.63;;;;;;;;;;4942874;29;20062;-67
2022/06/11 09:38:41;;;;;;;4.45;1.52;;;;;;;;;;4943909;28;20210;-66
2022/06/11 09:41:32;;;;;;;6.57;1.60;;;;;;;;;;4944618;29;20027;-66
2022/06/11 09:44:29;;;;;;;5.28;1.55;;;;;;;;;;4943612;29;20130;-66
2022/06/11 09:47:24;;;;;;;2.72;1.30;;;;;;;;;;4946963;28;20031;-67
2022/06/11 09:50:04;;;;;;;4.95;1.77;;;;;;;;;;4948228;29;20039;-65
2022/06/11 09:52:39;;;;;;;;;;;;;;;;;;4933648;29;20142;-65
2022/06/11 09:55:21;;;;;;;4.35;1.80;;;;;;;;;;4933229;29;20017;-65
2022/06/11 09:58:11;;;;;;;3.67;1.73;;;;;;;;;;4933113;29;20043;-65
2022/06/11 10:00:42;;;;;;;6.28;1.30;;;;;;;;;;4933167;29;20039;-64
2022/06/11 10:03:29;;;;;;;7.15;1.85;;;;;;;;;;4934783;29;20481;-66
2022/06/11 10:06:03;;;;;;;9.35;2.78;;;;;;;;;;4954284;28;20082;-66
2022/06/11 10:09:00;;;;;;;7.80;1.98;;;;;;;;;;4954369;28;20027;-66
2022/06/11 10:11:54;;;;;;;4.30;2.05;;;;;;;;;;4954296;28;20023;-67
2022/06/11 10:14:42;;;;;;;4.68;2.13;;;;;;;;;;4952974;29;20058;-64
2022/06/11 10:17:45;;;;;;;6.35;2.03;;;;;;;;;;4974733;28;20101;-65
2022/06/11 10:20:34;;;;;;;8.02;2.20;;;;;;;;;;4954117;28;20074;-66
2022/06/11 10:23:50;;;;;;;9.48;1.90;;;;;;;;;;4953620;28;20034;-66
2022/06/11 10:26:34;;;;;;;8.68;1.88;;;;;;;;;;4953348;29;20033;-66
2022/06/11 10:29:27;;;;;;;7.00;1.73;;;;;;;;;;4953853;29;20042;-67
2022/06/11 10:32:11;;;;;;;3.17;1.73;;;;;;;;;;4953953;28;20023;-66
2022/06/11 10:34:41;;;;;;;5.60;2.28;;;;;;;;;;4954115;28;20023;-66
2022/06/11 10:37:07;;;;;;;;;;;;;;;;;;4954396;28;20086;-66
2022/06/11 10:39:42;;;;;;;9.90;1.70;;;;;;;;;;4961540;28;19918;-67
2022/06/11 10:42:19;;;;;;;6.40;1.80;;;;;;;;;;4964125;28;20046;-67
2022/06/11 10:44:51;;;;;;;8.00;2.38;;;;;;;;;;4963807;28;20027;-66
2022/06/11 10:47:22;;;;;;;7.50;3.30;;;;;;;;;;4963154;28;20027;-67
2022/06/11 10:50:11;;;;;;;4.32;1.88;;;;;;;;;;4962333;28;20496;-67
2022/06/11 10:52:43;;;;;;;4.70;2.00;;;;;;;;;;4959165;28;20038;-67
2022/06/11 10:55:15;;;;;;;4.93;2.00;;;;;;;;;;4954557;28;20028;-66
2022/06/11 10:57:43;;;;;;;9.25;2.65;;;;;;;;;;4953587;29;20031;-66
2022/06/11 11:00:38;;;;;;;4.05;1.80;;;;;;;;;;4954440;28;20047;-66
2022/06/11 11:03:12;;;;;;;6.22;2.05;;;;;;;;;;4954778;28;20032;-66
2022/06/11 11:05:58;;;;;;;7.45;2.20;;;;;;;;;;4955197;28;20038;-66
2022/06/11 11:08:24;;;;;;;3.17;1.60;;;;;;;;;;4963763;28;20039;-66
2022/06/11 11:10:54;;;;;;;5.25;1.85;;;;;;;;;;4962126;28;20031;-66
2022/06/11 11:13:30;;;;;;;4.63;1.70;;;;;;;;;;4960589;28;20023;-66
2022/06/11 11:16:22;;;;;;;8.27;1.50;;;;;;;;;;4962714;28;20156;-67
2022/06/11 11:18:53;;;;;;;6.38;1.60;;;;;;;;;;4971496;28;20034;-65
2022/06/11 11:21:53;;;;;;;5.55;1.92;;;;;;;;;;4973590;28;20031;-66
2022/06/11 11:24:24;;;;;;;3.80;1.70;;;;;;;;;;4973703;28;20023;-66
2022/06/11 11:26:58;;;;;;;6.47;2.10;;;;;;;;;;4973747;28;20035;-66
2022/06/11 11:29:31;;;;;;;3.70;1.85;;;;;;;;;;4973520;28;20023;-66
2022/06/11 11:32:02;;;;;;;4.70;1.75;;;;;;;;;;4973645;28;20045;-65
2022/06/11 11:34:30;;;;;;;6.40;1.63;;;;;;;;;;4973625;28;20023;-65
2022/06/11 11:37:19;;;;;;;4.60;1.63;;;;;;;;;;4973619;28;20384;-68
2022/06/11 11:40:36;;;;;;;4.40;1.80;;;;;;;;;;4963776;28;20588;-66
2022/06/11 11:43:08;;;;;;;6.95;2.10;;;;;;;;;;4958816;28;20053;-65
2022/06/11 11:45:44;;;;;;;9.38;1.90;;;;;;;;;;4963040;28;20035;-66
2022/06/11 11:48:19;;;;;;;5.88;1.80;;;;;;;;;;4963245;28;20027;-66
2022/06/11 11:50:50;;;;;;;7.15;1.85;;;;;;;;;;4973538;28;20118;-67
2022/06/11 11:53:26;;;;;;;6.75;2.13;;;;;;;;;;4976971;28;20027;-65
2022/06/11 11:56:05;;;;;;;4.70;2.00;;;;;;;;;;4977174;28;20153;-67
2022/06/11 11:58:38;;;;;;;4.20;2.00;;;;;;;;;;4976898;28;20534;-67
2022/06/11 12:01:09;;;;;;;7.35;1.63;;;;;;;;;;4968456;28;20356;-67
2022/06/11 12:03:45;;;;;;;5.32;2.10;;;;;;;;;;4979887;28;20577;-66
2022/06/11 12:06:15;;;;;;;5.63;1.70;;;;;;;;;;4975085;28;20491;-66
2022/06/11 12:08:48;;;;;;;6.35;2.10;;;;;;;;;;4976534;28;20055;-67
2022/06/11 12:11:32;;;;;;;7.47;1.95;;;;;;;;;;4974184;28;20039;-66
2022/06/11 12:14:11;;;;;;;5.57;1.55;;;;;;;;;;4969101;28;20027;-65
2022/06/11 12:16:49;;;;;;;5.28;1.80;;;;;;;;;;4973442;28;20046;-64
2022/06/11 12:19:25;;;;;;;6.53;1.80;;;;;;;;;;4976674;28;20039;-64
2022/06/11 12:21:57;;;;;;;4.18;1.90;;;;;;;;;;4976512;28;20019;-64
2022/06/11 12:24:35;;;;;;;8.80;2.00;;;;;;;;;;4976579;28;20484;-65
2022/06/11 12:27:08;;;;;;;6.60;1.80;;;;;;;;;;4975940;28;20079;-65
2022/06/11 12:29:56;;;;;;;6.13;1.80;;;;;;;;;;4976627;28;20085;-66
2022/06/11 12:32:24;;;;;;;7.38;2.13;;;;;;;;;;4976473;28;20038;-65
2022/06/11 12:34:51;;;;;;;4.55;2.03;;;;;;;;;;4976307;28;20392;-65
2022/06/11 12:37:25;;;;;;;3.20;1.80;;;;;;;;;;4976248;28;20035;-65
2022/06/11 12:40:04;;;;;;;4.32;1.98;;;;;;;;;;4976060;28;20035;-66
2022/06/11 12:42:42;;;;;;;5.43;1.85;;;;;;;;;;4975983;28;20392;-66
2022/06/11 12:45:41;;;;;;;4.30;1.90;;;;;;;;;;4976189;28;20499;-66
2022/06/11 12:48:22;;;;;;;5.00;2.10;;;;;;;;;;4975975;28;20074;-66
2022/06/11 12:51:07;;;;;;;11.45;2.40;;;;;;;;;;4976009;28;20031;-67
2022/06/11 12:53:33;;;;;;;4.72;1.88;;;;;;;;;;4975828;28;20027;-67
2022/06/11 12:56:19;;;;;;;7.65;1.85;;;;;;;;;;4975808;28;20038;-68
2022/06/11 12:59:22;;;;;;;5.22;1.92;;;;;;;;;;4976091;28;20039;-68
2022/06/11 13:01:52;;;;;;;3.55;1.70;;;;;;;;;;4974837;28;20554;-68
2022/06/11 13:04:29;;;;;;;6.75;2.40;;;;;;;;;;4975809;28;20031;-68
2022/06/11 13:07:39;;;;;;;4.28;1.70;;;;;;;;;;4975785;28;20031;-68
2022/06/11 13:10:29;;;;;;;7.82;1.77;;;;;;;;;;4935043;29;20039;-68
2022/06/11 13:13:20;;;;;;;;;;;;;;;;;;4935892;29;20039;-70
2022/06/11 13:16:04;;;;;;;8.20;1.90;;;;;;;;;;4931327;29;19921;-70
2022/06/11 13:18:41;;;;;;;6.00;2.05;;;;;;;;;;4934853;29;20044;-69
2022/06/11 13:21:30;;;;;;;4.47;1.83;;;;;;;;;;4935259;29;20132;-70
2022/06/11 13:24:08;;;;;;;5.68;2.00;;;;;;;;;;4934813;29;20429;-71
2022/06/11 13:27:01;;;;;;;4.60;1.90;;;;;;;;;;4934828;29;20043;-68
2022/06/11 13:29:41;;;;;;;5.07;1.90;;;;;;;;;;4934888;29;20497;-69
2022/06/11 13:32:12;;;;;;;3.85;1.90;;;;;;;;;;4934663;29;20043;-68
2022/06/11 13:34:58;;;;;;;3.33;1.65;;;;;;;;;;4934786;29;20038;-69
2022/06/11 13:37:44;;;;;;;4.40;1.63;;;;;;;;;;4934743;29;20043;-68
2022/06/11 13:40:40;;;;;;;4.88;1.60;;;;;;;;;;4934458;29;20046;-70
2022/06/11 13:43:35;;;;;;;6.80;2.30;;;;;;;;;;4941016;28;20445;-70
2022/06/11 13:46:09;;;;;;;9.45;2.25;;;;;;;;;;4974858;28;20034;-70
2022/06/11 13:48:41;;;;;;;13.80;3.95;;;;;;;;;;4975162;28;20027;-69
2022/06/11 13:51:30;;;;;;;13.05;3.35;;;;;;;;;;4974592;28;20027;-69
2022/06/11 13:57:00;;;;;;;;;;;;;;;;;;4975387;28;20046;-68
2022/06/11 14:00:04;;;;;;;29.88;6.75;;;;;;;;;;4974619;28;19914;-69
2022/06/11 14:02:36;;;;;;;22.90;4.80;;;;;;;;;;4973140;28;20027;-68
2022/06/11 14:05:06;;;;;;;19.70;4.40;;;;;;;;;;4974041;28;20382;-70
2022/06/11 14:07:35;;;;;;;12.90;3.72;;;;;;;;;;4973941;28;20050;-70
2022/06/11 14:10:21;;;;;;;11.73;3.15;;;;;;;;;;4974065;28;20023;-69
2022/06/11 14:12:52;;;;;;;7.97;2.55;;;;;;;;;;4973361;28;20035;-70
2022/06/11 14:15:25;;;;;;;11.93;3.95;;;;;;;;;;4974088;28;20023;-70
2022/06/11 14:18:23;;;;;;;7.85;2.55;;;;;;;;;;4985493;28;20130;-69
2022/06/11 14:21:39;;;;;;;6.28;2.22;;;;;;;;;;4992295;28;20042;-69
2022/06/11 14:24:08;;;;;;;5.00;1.80;;;;;;;;;;4972338;28;20511;-71
2022/06/11 14:26:45;;;;;;;9.43;3.15;;;;;;;;;;4972236;28;20078;-69
2022/06/11 14:29:25;;;;;;;3.92;1.95;;;;;;;;;;4972301;28;20035;-70
2022/06/11 14:32:11;;;;;;;5.70;2.33;;;;;;;;;;4972335;28;20045;-70
2022/06/11 14:34:40;;;;;;;9.30;3.47;;;;;;;;;;4972379;28;20043;-69
2022/06/11 14:37:22;;;;;;;7.13;2.67;;;;;;;;;;4972056;28;20089;-69
2022/06/11 14:39:48;;;;;;;6.10;1.90;;;;;;;;;;4972229;28;20058;-69
2022/06/11 14:42:14;;;;;;;6.20;2.15;;;;;;;;;;4972076;28;20104;-68
2022/06/11 14:44:40;;;;;;;4.30;1.98;;;;;;;;;;4971945;28;20595;-69
2022/06/11 14:47:45;;;;;;;9.38;2.95;;;;;;;;;;4972104;28;20473;-69
2022/06/11 14:51:09;;;;;;;8.25;2.72;;;;;;;;;;4971853;28;20396;-68
2022/06/11 14:53:43;;;;;;;6.13;2.53;;;;;;;;;;4973416;28;20027;-68
2022/06/11 14:56:17;;;;;;;4.20;2.00;;;;;;;;;;4993489;28;20034;-69
2022/06/11 14:59:10;;;;;;;7.10;2.17;;;;;;;;;;4993461;28;20030;-69
2022/06/11 15:01:54;;;;;;;6.75;2.60;;;;;;;;;;4993527;28;20073;-69
2022/06/11 15:04:34;;;;;;;3.88;1.90;;;;;;;;;;4993414;28;20018;-69
2022/06/11 15:07:11;;;;;;;4.18;1.70;;;;;;;;;;4993380;28;20041;-70
2022/06/11 15:10:31;;;;;;;6.53;2.10;;;;;;;;;;4993473;28;20022;-70
2022/06/11 15:13:04;;;;;;;3.95;1.50;;;;;;;;;;4971885;28;20038;-70
2022/06/11 15:15:50;;;;;;;5.22;1.70;;;;;;;;;;4971583;28;20554;-70
2022/06/11 15:18:47;;;;;;;3.17;1.85;;;;;;;;;;4971699;28;20058;-69
2022/06/11 15:21:27;;;;;;;4.60;2.13;;;;;;;;;;4971378;28;20498;-70
2022/06/11 15:24:01;;;;;;;11.30;2.67;;;;;;;;;;4971707;28;20042;-69
2022/06/11 15:26:34;;;;;;;6.82;2.35;;;;;;;;;;4975753;28;20320;-69
2022/06/11 15:29:10;;;;;;;7.82;2.25;;;;;;;;;;4975439;28;20121;-70
2022/06/11 15:31:41;;;;;;;6.05;2.08;;;;;;;;;;4975623;28;20061;-69